Stamford, Nebraska
Current Conditions -  °F | °C
As of 12:15 AM on Friday 26 Dec 2014 (Local Time) from KHDE Reporting Station
Overcast Overcast  
Wind Chill: 16°   Ceiling: 800
Heat Index: 30°   Visibility: 10mi
Dew Point: 27°   Wind: 23mph
Humidity: 89%   Direction: 360°N
Pressure: 29.81"   Gusts: 29mph
Location:  40.13°N, 99.59°W
Report Text: KHDE 260615Z AUTO 36020G25KT 10SM OVC008 M01/M03 A2981 RMK AO2 T10121028
Loading
Personal Weather Stations






























Interactive Weather Map New forecast layout! Learn more

10-Day Weather Forecast

Advertisements
Track Severe Weather on mobile